Time;durP1;ratioP1;P1;durP2;ratioP2;P2;SDS_P1;SDS_P2;PMS_P1;PMS_P2;Temp;Humidity;BMP_temperature;BMP_pressure;BME280_temperature;BME280_humidity;BME280_pressure;Samples;Min_cycle;Max_cycle;Signal;HPM_P1;HPM_P2
2023/05/03 00:03:47;;;;;;;1.98;1.75;;;;;;;19.79;47.27;97617.94;10309616;28;20446;-93
2023/05/03 00:09:09;;;;;;;3.83;1.60;;;;;;;19.79;47.28;97625.28;10322908;28;20532;-93
2023/05/03 00:14:29;;;;;;;1.65;1.55;;;;;;;19.79;47.10;97619.88;10322950;28;20109;-92
2023/05/03 00:19:49;;;;;;;1.38;1.27;;;;;;;19.77;47.28;97620.16;10308541;28;20057;-91
2023/05/03 00:25:09;;;;;;;1.85;1.58;;;;;;;19.76;47.11;97621.28;10324409;28;20055;-92
2023/05/03 00:30:29;;;;;;;1.92;1.23;;;;;;;19.75;47.13;97617.75;10323278;28;20546;-92
2023/05/03 00:35:49;;;;;;;2.58;1.63;;;;;;;19.74;47.04;97623.50;10291989;28;20054;-92
2023/05/03 00:41:09;;;;;;;1.60;1.50;;;;;;;19.74;47.11;97618.88;10334666;28;20057;-92
2023/05/03 00:46:29;;;;;;;1.77;1.35;;;;;;;19.73;46.86;97619.19;10321106;28;20133;-93
2023/05/03 00:51:51;;;;;;;1.50;1.40;;;;;;;19.71;47.07;97622.19;10307455;28;20474;-92
2023/05/03 00:57:10;;;;;;;3.15;1.92;;;;;;;19.72;46.89;97631.13;10320641;28;20050;-92
2023/05/03 01:02:30;;;;;;;1.60;1.50;;;;;;;19.71;46.93;97618.66;10293887;28;20050;-92
2023/05/03 01:08:05;;;;;;;1.63;1.52;;;;;;;19.70;46.95;97620.56;10306919;28;20053;-92
2023/05/03 01:13:41;;;;;;;1.75;1.25;;;;;;;19.69;46.93;97618.16;10333991;28;20050;-92
2023/05/03 01:19:06;;;;;;;1.60;1.40;;;;;;;19.69;46.99;97623.56;10307333;28;20061;-92
2023/05/03 01:24:27;;;;;;;1.40;1.30;;;;;;;19.67;46.97;97626.56;10333594;28;20069;-92
2023/05/03 01:29:47;;;;;;;1.30;1.20;;;;;;;19.67;46.94;97625.78;10333441;28;20413;-92
2023/05/03 01:35:07;;;;;;;1.50;1.40;;;;;;;19.66;47.04;97624.16;10332990;28;20427;-92
2023/05/03 01:40:29;;;;;;;1.58;1.48;;;;;;;19.66;47.05;97630.38;10290941;28;20130;-92
2023/05/03 01:45:49;;;;;;;1.45;1.30;;;;;;;19.66;46.94;97629.56;10305521;28;20057;-91
2023/05/03 01:51:09;;;;;;;1.70;1.30;;;;;;;19.63;47.06;97633.69;10308146;28;20491;-91
2023/05/03 01:56:33;;;;;;;1.20;1.10;;;;;;;19.63;47.12;97636.41;10291815;28;20566;-92
2023/05/03 02:01:53;;;;;;;1.90;1.50;;;;;;;19.63;46.83;97632.91;10306461;28;20054;-92
2023/05/03 02:07:13;;;;;;;2.45;1.60;;;;;;;19.62;46.92;97628.59;10327401;28;20050;-92
2023/05/03 02:12:33;;;;;;;1.48;1.23;;;;;;;19.61;46.92;97627.00;10340658;28;20051;-91
2023/05/03 02:17:54;;;;;;;1.52;1.35;;;;;;;19.61;46.94;97640.50;10326833;28;20057;-91
2023/05/03 02:23:14;;;;;;;1.27;1.20;;;;;;;19.60;47.03;97642.44;10328626;28;20058;-92
2023/05/03 02:28:34;;;;;;;1.83;1.20;;;;;;;19.59;46.88;97645.44;10360660;28;20034;-91
2023/05/03 02:33:54;;;;;;;1.55;1.30;;;;;;;19.59;47.00;97662.44;10337313;28;20054;-91
2023/05/03 02:39:14;;;;;;;1.50;1.30;;;;;;;19.57;47.05;97643.03;10329225;28;20380;-92
2023/05/03 02:44:37;;;;;;;1.35;1.20;;;;;;;19.57;46.84;97653.81;10326502;28;20069;-92
2023/05/03 02:49:57;;;;;;;2.67;1.20;;;;;;;19.55;47.01;97645.22;10311758;28;20054;-92
2023/05/03 02:55:17;;;;;;;2.20;1.30;;;;;;;19.54;46.84;97655.25;10312632;28;20050;-92
2023/05/03 03:00:39;;;;;;;2.55;1.20;;;;;;;19.54;46.84;97654.41;10328492;28;20060;-92
2023/05/03 03:05:59;;;;;;;1.33;1.23;;;;;;;19.54;46.89;97659.81;10311879;28;20058;-92
2023/05/03 03:11:18;;;;;;;1.48;1.38;;;;;;;19.53;46.94;97659.03;10324959;28;20395;-92
2023/05/03 03:16:40;;;;;;;1.35;1.20;;;;;;;19.51;46.93;97669.34;10311324;28;20380;-91
2023/05/03 03:22:00;;;;;;;1.38;1.27;;;;;;;19.51;46.92;97665.84;10323925;28;20473;-83
2023/05/03 03:27:21;;;;;;;1.15;1.05;;;;;;;19.51;46.76;97672.06;10323368;28;20133;-83
2023/05/03 03:32:41;;;;;;;1.27;1.17;;;;;;;19.50;46.53;97672.34;10323160;28;20058;-83
2023/05/03 03:38:06;;;;;;;1.63;1.38;;;;;;;19.49;46.58;97674.25;10309963;28;20046;-82
2023/05/03 03:43:30;;;;;;;1.30;1.20;;;;;;;19.48;46.60;97680.78;10309729;28;20525;-82
2023/05/03 03:48:50;;;;;;;1.63;1.20;;;;;;;19.47;46.98;97672.97;10317766;28;20057;-83
2023/05/03 03:54:10;;;;;;;1.60;1.50;;;;;;;19.46;46.61;97674.06;10322746;28;20050;-91
2023/05/03 03:59:35;;;;;;;1.98;1.30;;;;;;;19.45;46.62;97675.97;10324493;28;20047;-91
2023/05/03 04:04:56;;;;;;;1.30;1.20;;;;;;;19.46;46.50;97676.75;10311579;28;20500;-91
2023/05/03 04:10:15;;;;;;;1.25;1.13;;;;;;;19.44;46.57;97679.75;10323395;28;20051;-91
2023/05/03 04:15:36;;;;;;;1.50;1.30;;;;;;;19.43;46.47;97680.09;10308953;28;20081;-91
2023/05/03 04:20:57;;;;;;;1.50;1.40;;;;;;;19.43;46.54;97696.28;10335547;28;20123;-92
2023/05/03 04:26:23;;;;;;;1.23;1.10;;;;;;;19.43;46.26;97697.09;10307256;28;20051;-92
2023/05/03 04:31:43;;;;;;;1.30;1.20;;;;;;;19.43;46.43;97707.91;10308683;28;20511;-91
2023/05/03 04:37:05;;;;;;;1.38;1.17;;;;;;;19.43;46.38;97707.09;10322463;28;20150;-92
2023/05/03 04:42:27;;;;;;;1.65;1.30;;;;;;;19.44;46.49;97712.19;10321876;28;20062;-92
2023/05/03 04:47:47;;;;;;;1.23;1.13;;;;;;;19.44;46.36;97720.28;10316794;28;20065;-93
2023/05/03 04:53:08;;;;;;;1.75;1.35;;;;;;;19.45;46.25;97726.53;10308249;28;20058;-93
2023/05/03 04:58:32;;;;;;;1.55;1.17;;;;;;;19.46;46.25;97723.50;10317829;28;20403;-92
2023/05/03 05:03:53;;;;;;;2.55;1.45;;;;;;;19.47;45.94;97727.81;10308115;28;20058;-93
2023/05/03 05:09:25;;;;;;;2.22;1.35;;;;;;;19.51;46.50;97736.91;10322553;28;20066;-93
2023/05/03 05:14:46;;;;;;;1.38;1.27;;;;;;;19.52;46.09;97737.72;10320395;28;20494;-93
2023/05/03 05:20:11;;;;;;;1.95;1.40;;;;;;;19.54;46.56;97746.31;10328858;28;20054;-93
2023/05/03 05:25:32;;;;;;;1.38;1.27;;;;;;;19.58;46.69;97752.72;10305146;28;20061;-93
2023/05/03 05:30:56;;;;;;;1.25;1.10;;;;;;;19.61;46.86;97754.03;10320560;28;20078;-92
2023/05/03 05:36:16;;;;;;;2.65;1.10;;;;;;;19.63;46.87;97752.63;10305833;28;20061;-92
2023/05/03 05:41:36;;;;;;;1.35;1.20;;;;;;;19.67;46.94;97766.34;10277037;28;20062;-93
2023/05/03 05:46:57;;;;;;;4.22;1.20;;;;;;;19.68;46.86;97766.06;10346705;28;20054;-93
2023/05/03 05:52:17;;;;;;;1.92;1.30;;;;;;;19.73;46.73;97775.97;10319361;28;20125;-93
2023/05/03 05:57:38;;;;;;;2.60;0.98;;;;;;;19.74;46.88;97775.69;10305844;28;20058;-92
2023/05/03 06:02:57;;;;;;;1.95;1.17;;;;;;;19.76;47.13;97780.81;10306047;28;20059;-92
2023/05/03 06:08:17;;;;;;;2.40;1.38;;;;;;;19.79;47.00;97784.78;10332622;28;20494;-93
2023/05/03 06:13:39;;;;;;;3.13;1.20;;;;;;;19.83;46.96;97792.00;10296257;28;20055;-93
2023/05/03 06:19:00;;;;;;;3.65;1.40;;;;;;;19.85;47.57;97795.19;10328689;28;20065;-92
2023/05/03 06:24:20;;;;;;;2.70;1.20;;;;;;;19.90;47.35;97791.59;10333480;28;20051;-92
2023/05/03 06:29:43;;;;;;;2.47;1.05;;;;;;;19.94;47.44;97798.00;10333706;28;20550;-91
2023/05/03 06:35:04;;;;;;;2.92;1.15;;;;;;;19.96;47.33;97803.91;10320974;28;20050;-90
2023/05/03 06:40:25;;;;;;;1.95;1.10;;;;;;;19.99;47.46;97810.59;10306174;28;20054;-84
2023/05/03 06:45:45;;;;;;;1.92;1.08;;;;;;;20.00;47.36;97796.78;10317572;28;20046;-84
2023/05/03 06:51:05;;;;;;;3.03;1.33;;;;;;;20.03;47.41;97807.00;10310707;28;20085;-84
2023/05/03 06:56:25;;;;;;;1.83;1.10;;;;;;;20.07;47.38;97812.59;10282042;28;20062;-84
2023/05/03 07:01:45;;;;;;;3.38;1.20;;;;;;;20.09;47.30;97807.69;10324667;28;20054;-92
2023/05/03 07:07:05;;;;;;;2.10;1.10;;;;;;;20.14;47.33;97815.72;10325356;28;20050;-84
2023/05/03 07:12:27;;;;;;;3.08;1.00;;;;;;;20.18;47.29;97810.50;10337761;28;20050;-84
2023/05/03 07:17:47;;;;;;;1.58;1.00;;;;;;;20.20;47.11;97816.41;10310627;28;20054;-85
2023/05/03 07:23:06;;;;;;;1.05;0.90;;;;;;;20.23;47.11;97804.94;10324189;28;20609;-85
2023/05/03 07:28:26;;;;;;;2.00;1.10;;;;;;;20.24;46.95;97803.88;10351579;28;20054;-85
2023/05/03 07:33:48;;;;;;;7.10;2.47;;;;;;;20.09;37.07;97805.81;10337346;28;20046;-84
2023/05/03 07:39:10;;;;;;;7.38;2.88;;;;;;;19.85;33.63;97805.22;10322934;28;20074;-84
2023/05/03 07:44:33;;;;;;;3.72;2.03;;;;;;;19.67;31.93;97804.19;10323894;28;20054;-94
2023/05/03 07:49:55;;;;;;;4.85;2.20;;;;;;;19.56;30.84;97815.22;10270270;28;20090;-94
2023/05/03 07:55:16;;;;;;;8.50;2.38;;;;;;;19.50;31.34;97812.88;10257387;28;20047;-94
2023/05/03 08:00:36;;;;;;;4.82;2.30;;;;;;;19.42;30.28;97808.97;10255898;28;20055;-93
2023/05/03 08:05:56;;;;;;;6.63;2.22;;;;;;;19.40;30.19;97821.97;10272419;28;20539;-94
2023/05/03 08:11:15;;;;;;;8.32;2.80;;;;;;;19.36;30.37;97820.97;10271219;28;20047;-93
2023/05/03 08:16:40;;;;;;;5.65;2.50;;;;;;;19.36;30.63;97810.16;10296257;28;20049;-92
2023/05/03 08:22:17;;;;;;;4.90;1.75;;;;;;;19.55;34.22;97807.38;10240254;28;20458;-92
2023/05/03 08:27:42;;;;;;;3.50;1.58;;;;;;;19.71;35.12;97797.06;10308621;28;20423;-93
2023/05/03 08:33:04;;;;;;;4.13;1.80;;;;;;;19.81;35.12;97796.91;10224603;29;20130;-84
2023/05/03 08:38:24;;;;;;;6.60;2.20;;;;;;;19.88;35.74;97805.41;10208405;29;20059;-84
2023/05/03 08:43:47;;;;;;;4.85;1.90;;;;;;;19.94;36.49;97798.78;10210577;29;20098;-84
2023/05/03 08:49:07;;;;;;;3.90;2.17;;;;;;;19.99;37.03;97799.78;10253454;28;20130;-84
2023/05/03 08:54:27;;;;;;;4.25;1.90;;;;;;;20.02;37.61;97794.59;10333541;28;20065;-84
2023/05/03 08:59:52;;;;;;;4.85;1.90;;;;;;;20.05;38.11;97798.56;10292829;28;20058;-84
2023/05/03 09:05:15;;;;;;;4.75;2.00;;;;;;;20.08;38.52;97792.56;10321030;28;20054;-92
2023/05/03 09:10:42;;;;;;;4.68;2.22;;;;;;;20.10;38.90;97791.16;10307397;28;20061;-84
2023/05/03 09:16:01;;;;;;;3.55;2.00;;;;;;;20.15;39.19;97790.25;10305728;28;20062;-85
2023/05/03 09:21:21;;;;;;;4.72;2.00;;;;;;;20.20;39.46;97805.56;10305488;28;20466;-84
2023/05/03 09:26:45;;;;;;;2.40;1.85;;;;;;;20.21;39.36;97794.47;10332762;28;20058;-84
2023/05/03 09:32:06;;;;;;;2.90;1.90;;;;;;;20.24;39.49;97790.34;10305439;28;20490;-84
2023/05/03 09:37:37;;;;;;;3.58;1.88;;;;;;;20.27;39.66;97793.25;10305545;28;20058;-84
2023/05/03 09:43:08;;;;;;;2.50;1.70;;;;;;;20.31;39.71;97788.03;10319330;28;20054;-84
2023/05/03 09:48:27;;;;;;;3.70;1.80;;;;;;;20.32;40.68;97792.31;10314887;28;20054;-84
2023/05/03 09:53:48;;;;;;;3.72;1.67;;;;;;;20.34;40.66;97799.00;10331959;28;20066;-85
2023/05/03 09:59:09;;;;;;;4.05;2.00;;;;;;;20.37;40.83;97796.81;10305329;28;20055;-84
2023/05/03 10:04:42;;;;;;;3.20;1.80;;;;;;;20.38;40.82;97790.28;10318222;28;20132;-84
2023/05/03 10:10:03;;;;;;;3.92;1.88;;;;;;;20.41;41.31;97784.28;10305151;28;20432;-83
2023/05/03 10:15:26;;;;;;;2.65;1.73;;;;;;;20.41;41.42;97773.47;10288751;28;20047;-83
2023/05/03 10:20:50;;;;;;;2.33;1.90;;;;;;;20.43;41.28;97772.03;10305013;28;20057;-84
2023/05/03 10:26:12;;;;;;;2.63;1.92;;;;;;;20.43;41.10;97772.03;10321997;28;20054;-84
2023/05/03 10:31:45;;;;;;;3.78;1.92;;;;;;;20.45;41.10;97766.31;10296381;28;20061;-83
2023/05/03 10:37:10;;;;;;;11.52;3.95;;;;;;;20.44;41.13;97773.63;10342484;28;20058;-84
2023/05/03 10:42:30;;;;;;;8.75;2.80;;;;;;;20.47;40.97;97761.41;10361764;28;20065;-85
2023/05/03 10:48:19;;;;;;;7.93;3.35;;;;;;;20.47;41.01;97773.03;10359138;28;20109;-84
2023/05/03 10:53:40;;;;;;;7.40;3.15;;;;;;;20.47;41.01;97767.59;10311429;28;20050;-89
2023/05/03 10:59:02;;;;;;;7.15;3.30;;;;;;;20.48;41.00;97765.69;10298117;28;20065;-90
2023/05/03 11:04:33;;;;;;;3.85;2.38;;;;;;;20.49;41.09;97759.19;10326986;28;20061;-91
2023/05/03 11:09:53;;;;;;;6.55;3.13;;;;;;;20.48;40.98;97752.16;10326030;28;20490;-90
2023/05/03 11:15:13;;;;;;;6.72;3.13;;;;;;;20.48;41.26;97747.56;10337486;28;20054;-84
2023/05/03 11:20:33;;;;;;;6.63;2.90;;;;;;;20.49;41.19;97754.56;10310338;28;20085;-84
2023/05/03 11:25:52;;;;;;;10.45;3.65;;;;;;;20.49;41.07;97751.84;10310073;28;20058;-84
2023/05/03 11:31:22;;;;;;;6.60;3.05;;;;;;;20.49;41.12;97732.91;10323221;28;20057;-85
2023/05/03 11:36:48;;;;;;;6.05;2.92;;;;;;;20.49;41.03;97730.22;10312755;28;20047;-83
2023/05/03 11:42:08;;;;;;;11.90;3.53;;;;;;;20.51;41.06;97751.56;10298457;28;20058;-84
2023/05/03 11:47:28;;;;;;;7.57;3.25;;;;;;;20.49;40.88;97745.66;10314092;28;20058;-89
2023/05/03 11:52:47;;;;;;;8.05;2.92;;;;;;;20.49;39.69;97745.66;10324743;28;20050;-93
2023/05/03 11:58:19;;;;;;;6.25;3.80;;;;;;;20.26;35.14;97728.59;10324014;28;20502;-91
2023/05/03 12:03:39;;;;;;;7.22;3.53;;;;;;;20.32;38.25;97725.44;10296237;28;20061;-91
2023/05/03 12:09:02;;;;;;;2.22;1.83;;;;;;;20.37;39.22;97721.84;10309659;28;20066;-92
2023/05/03 12:14:24;;;;;;;5.53;3.35;;;;;;;20.39;39.57;97722.34;10322906;28;20047;-93
2023/05/03 12:19:44;;;;;;;6.35;3.03;;;;;;;20.41;40.01;97720.13;10338420;28;20050;-93
2023/05/03 12:25:06;;;;;;;5.00;2.28;;;;;;;20.42;39.86;97715.50;10310892;28;20137;-94
2023/05/03 12:30:26;;;;;;;3.88;2.45;;;;;;;20.42;39.87;97720.91;10323800;28;20506;-86
2023/05/03 12:35:46;;;;;;;5.00;2.53;;;;;;;20.41;39.51;97708.50;10321576;28;20074;-93
2023/05/03 12:41:07;;;;;;;3.35;1.52;;;;;;;20.41;39.30;97703.09;10310729;28;20046;-93
2023/05/03 12:46:27;;;;;;;4.22;2.30;;;;;;;20.39;38.96;97697.97;10312651;28;20046;-93
2023/05/03 12:52:01;;;;;;;3.30;2.10;;;;;;;20.38;38.56;97699.06;10491680;28;20218;-48
2023/05/03 12:57:21;;;;;;;4.13;2.22;;;;;;;20.41;38.75;97709.28;10463900;28;20433;-50
2023/05/03 13:02:41;;;;;;;3.47;1.70;;;;;;;20.41;38.71;97697.69;10463813;28;20092;-49
2023/05/03 13:08:01;;;;;;;3.83;2.35;;;;;;;20.41;38.67;97695.75;10463391;28;20041;-47
2023/05/03 13:13:21;;;;;;;3.70;1.60;;;;;;;20.41;38.96;97693.06;10463346;28;20045;-49
2023/05/03 13:18:41;;;;;;;2.28;1.80;;;;;;;20.42;38.96;97681.09;10463097;28;20049;-49
2023/05/03 13:24:01;;;;;;;2.55;2.03;;;;;;;20.44;39.07;97669.97;10462886;28;20072;-49
2023/05/03 13:29:20;;;;;;;2.97;2.17;;;;;;;20.43;39.32;97663.00;10462670;28;20103;-48
2023/05/03 13:34:40;;;;;;;3.92;1.90;;;;;;;20.43;39.47;97666.47;10462554;28;20095;-49
2023/05/03 13:40:00;;;;;;;2.80;2.00;;;;;;;20.43;39.54;97652.16;10448372;28;20107;-48
2023/05/03 13:45:20;;;;;;;4.28;2.00;;;;;;;20.43;39.56;97654.88;10462055;28;20068;-47
2023/05/03 13:50:39;;;;;;;2.75;1.95;;;;;;;20.43;39.60;97647.53;10451422;28;20489;-47
2023/05/03 13:55:59;;;;;;;3.38;1.75;;;;;;;20.43;39.77;97635.91;10448390;28;20060;-48
2023/05/03 14:01:18;;;;;;;2.38;1.90;;;;;;;20.44;39.94;97638.28;10445292;28;20054;-45
2023/05/03 14:06:38;;;;;;;2.97;1.67;;;;;;;20.44;40.21;97637.50;10433818;28;20397;-47
2023/05/03 14:11:58;;;;;;;2.33;1.80;;;;;;;20.43;40.27;97636.72;10432632;28;20048;-45
2023/05/03 14:17:17;;;;;;;3.08;2.00;;;;;;;20.46;40.46;97627.97;10433253;28;20057;-45
2023/05/03 14:22:37;;;;;;;3.05;1.67;;;;;;;20.45;39.87;97639.91;10433097;28;20052;-48
2023/05/03 14:27:56;;;;;;;2.58;1.80;;;;;;;20.42;40.17;97634.31;10432985;28;20045;-48
2023/05/03 14:33:16;;;;;;;4.45;1.80;;;;;;;20.42;40.34;97628.91;10432749;28;20042;-47
2023/05/03 14:38:36;;;;;;;3.35;1.70;;;;;;;20.42;40.40;97635.09;10432604;28;20057;-46
2023/05/03 14:43:55;;;;;;;3.03;1.60;;;;;;;20.44;40.49;97637.50;10432299;28;20474;-46
2023/05/03 14:49:16;;;;;;;4.75;2.60;;;;;;;20.43;36.44;97634.00;10418355;28;20089;-47
2023/05/03 14:54:36;;;;;;;5.25;2.72;;;;;;;20.36;33.77;97633.63;10431924;28;20052;-45
2023/05/03 14:59:56;;;;;;;5.97;2.38;;;;;;;20.30;33.23;97641.06;10431672;28;20056;-47
2023/05/03 15:05:16;;;;;;;7.35;2.63;;;;;;;20.27;32.19;97636.28;10431493;28;20046;-47
2023/05/03 15:10:39;;;;;;;6.07;2.40;;;;;;;20.27;33.45;97639.00;10430553;28;20046;-47
2023/05/03 15:15:59;;;;;;;5.00;2.50;;;;;;;20.25;33.49;97638.50;10431073;28;20048;-47
2023/05/03 15:21:19;;;;;;;5.50;2.35;;;;;;;20.27;33.05;97638.22;10430878;28;20038;-45
2023/05/03 15:26:38;;;;;;;5.00;2.38;;;;;;;20.24;32.18;97634.19;10430577;28;20041;-47
2023/05/03 15:31:58;;;;;;;6.07;2.00;;;;;;;20.24;33.03;97634.19;10430301;28;20037;-45
2023/05/03 15:37:17;;;;;;;3.78;1.88;;;;;;;20.23;32.63;97635.31;10417016;28;20138;-46
2023/05/03 15:42:37;;;;;;;5.40;2.33;;;;;;;20.22;31.89;97638.31;10416804;28;20109;-46
2023/05/03 15:47:57;;;;;;;6.40;2.42;;;;;;;20.19;31.16;97634.34;10426757;28;20054;-49
2023/05/03 15:53:16;;;;;;;4.60;2.00;;;;;;;20.17;31.54;97631.16;10429567;28;20045;-48
2023/05/03 15:58:35;;;;;;;3.35;2.03;;;;;;;20.15;32.73;97636.84;10429413;28;20046;-48
2023/05/03 16:03:55;;;;;;;5.00;2.13;;;;;;;20.16;31.92;97637.66;10429119;28;20038;-48
2023/05/03 16:09:15;;;;;;;8.23;2.25;;;;;;;20.14;31.78;97637.94;10428893;28;20048;-48
2023/05/03 16:14:35;;;;;;;3.40;2.10;;;;;;;20.12;31.93;97628.56;10428813;28;20452;-50
2023/05/03 16:19:54;;;;;;;5.20;2.05;;;;;;;20.10;31.69;97628.06;10428592;28;20050;-49
2023/05/03 16:25:14;;;;;;;5.00;2.13;;;;;;;20.09;31.46;97627.28;10428227;28;20615;-49
2023/05/03 16:30:33;;;;;;;3.80;2.33;;;;;;;20.07;31.23;97613.25;10428237;28;20049;-45
2023/05/03 16:35:53;;;;;;;5.18;2.20;;;;;;;20.04;31.10;97604.94;10428208;28;20045;-45
2023/05/03 16:41:12;;;;;;;5.75;1.80;;;;;;;20.02;30.30;97609.88;10427077;28;20046;-44
2023/05/03 16:46:33;;;;;;;6.68;2.60;;;;;;;19.97;29.47;97618.09;10427918;28;20858;-48
2023/05/03 16:51:55;;;;;;;4.38;2.15;;;;;;;19.89;29.69;97617.72;10414243;28;20061;-46
2023/05/03 16:57:14;;;;;;;2.55;1.60;;;;;;;19.84;29.19;97609.72;10427776;28;20050;-49
2023/05/03 17:02:35;;;;;;;4.78;1.77;;;;;;;19.79;28.45;97609.84;10427578;28;20041;-49
2023/05/03 17:07:54;;;;;;;3.92;2.00;;;;;;;19.76;29.24;97613.16;10427324;28;20041;-46
2023/05/03 17:13:15;;;;;;;3.50;1.77;;;;;;;19.68;29.13;97613.84;10427510;28;20056;-48
2023/05/03 17:18:35;;;;;;;3.80;1.85;;;;;;;19.49;29.92;97609.41;10427526;28;20049;-47
2023/05/03 17:23:55;;;;;;;4.13;1.77;;;;;;;19.35;30.62;97614.03;10427327;28;20048;-47
2023/05/03 17:29:15;;;;;;;5.43;1.90;;;;;;;19.28;30.31;97617.13;10427148;28;20387;-47
2023/05/03 17:34:35;;;;;;;5.97;1.70;;;;;;;19.34;32.24;97612.44;10428159;28;20462;-45
2023/05/03 17:39:55;;;;;;;4.05;1.67;;;;;;;19.38;32.42;97613.41;10434835;28;20100;-46
2023/05/03 17:45:15;;;;;;;4.25;1.88;;;;;;;19.39;32.31;97609.63;10434690;28;20046;-49
2023/05/03 17:50:34;;;;;;;5.07;1.80;;;;;;;19.38;32.37;97613.41;10424421;28;20096;-46
2023/05/03 17:55:54;;;;;;;4.47;1.88;;;;;;;19.37;32.26;97611.84;10434308;28;20049;-47
2023/05/03 18:01:14;;;;;;;9.68;1.90;;;;;;;19.34;32.20;97612.44;10434143;28;20045;-47
2023/05/03 18:06:34;;;;;;;3.25;1.65;;;;;;;19.44;33.96;97614.13;10433840;28;20045;-45
2023/05/03 18:11:55;;;;;;;4.60;1.50;;;;;;;19.52;34.53;97614.22;10433642;28;20041;-47
2023/05/03 18:17:14;;;;;;;3.13;1.77;;;;;;;19.60;35.11;97619.97;10433451;28;20049;-47
2023/05/03 18:22:33;;;;;;;3.13;1.80;;;;;;;19.64;35.13;97615.56;10433260;28;20037;-49
2023/05/03 18:27:53;;;;;;;3.40;1.50;;;;;;;19.68;35.42;97616.53;10432981;28;20041;-48
2023/05/03 18:33:13;;;;;;;2.50;1.70;;;;;;;19.71;35.59;97616.78;10432836;28;20038;-49
2023/05/03 18:38:33;;;;;;;4.15;1.50;;;;;;;19.74;35.79;97627.00;10432666;28;20045;-48
2023/05/03 18:43:53;;;;;;;3.67;1.58;;;;;;;19.78;35.73;97629.06;10431440;28;20413;-48
2023/05/03 18:49:13;;;;;;;3.42;1.42;;;;;;;19.81;36.63;97634.66;10425701;28;20056;-50
2023/05/03 18:54:33;;;;;;;3.47;1.80;;;;;;;19.85;37.07;97645.69;10431913;28;20041;-49
2023/05/03 18:59:55;;;;;;;5.53;1.60;;;;;;;19.87;37.52;97630.75;10431766;28;20405;-45
2023/05/03 19:05:15;;;;;;;5.00;1.70;;;;;;;19.88;37.74;97635.06;10431549;28;20041;-48
2023/05/03 19:10:35;;;;;;;3.20;1.75;;;;;;;19.92;38.08;97646.84;10431276;28;20045;-49
2023/05/03 19:15:54;;;;;;;5.05;2.10;;;;;;;19.93;38.32;97651.19;10431100;28;20481;-49
2023/05/03 19:21:18;;;;;;;3.97;2.00;;;;;;;19.95;38.72;97664.38;10430918;28;20398;-47
2023/05/03 19:26:37;;;;;;;4.10;1.75;;;;;;;19.97;38.51;97664.06;10430662;28;20041;-49
2023/05/03 19:31:57;;;;;;;4.38;1.73;;;;;;;19.99;38.64;97661.84;10430368;28;20041;-48
2023/05/03 19:37:16;;;;;;;2.92;1.50;;;;;;;20.00;38.72;97666.19;10430261;28;20052;-47
2023/05/03 19:42:35;;;;;;;3.40;1.70;;;;;;;20.02;38.77;97669.38;10430499;28;20047;-48
2023/05/03 19:47:55;;;;;;;2.53;1.58;;;;;;;20.04;38.81;97665.25;10427094;28;20508;-48
2023/05/03 19:53:14;;;;;;;5.93;1.90;;;;;;;20.06;38.86;97665.75;10429652;28;20107;-46
2023/05/03 19:58:34;;;;;;;4.43;1.60;;;;;;;20.07;38.90;97661.13;10429002;28;20057;-49
2023/05/03 20:03:55;;;;;;;3.55;1.67;;;;;;;20.11;39.02;97659.41;10429342;28;20041;-49
2023/05/03 20:09:14;;;;;;;2.47;1.42;;;;;;;20.12;39.12;97661.00;10429048;28;20520;-49
2023/05/03 20:14:34;;;;;;;2.35;1.42;;;;;;;20.14;39.18;97667.69;10428977;28;20065;-49
2023/05/03 20:19:53;;;;;;;2.45;1.55;;;;;;;20.18;39.17;97665.19;10428753;28;20049;-46
2023/05/03 20:25:13;;;;;;;3.20;1.40;;;;;;;20.18;39.16;97659.78;10428542;28;20045;-48
2023/05/03 20:30:33;;;;;;;1.70;1.40;;;;;;;20.21;39.21;97652.94;10428428;28;20374;-49
2023/05/03 20:35:53;;;;;;;3.13;1.50;;;;;;;20.21;39.29;97655.66;10428362;28;20448;-46
2023/05/03 20:41:12;;;;;;;1.48;1.10;;;;;;;20.21;39.39;97651.06;10428202;28;20049;-48
2023/05/03 20:46:33;;;;;;;4.15;1.60;;;;;;;20.23;39.40;97654.25;10415000;28;20061;-50
2023/05/03 20:51:55;;;;;;;3.90;1.50;;;;;;;20.24;39.66;97661.25;10414333;28;20498;-46
2023/05/03 20:57:15;;;;;;;2.80;1.30;;;;;;;20.25;39.58;97657.47;10427879;28;20095;-46
2023/05/03 21:02:35;;;;;;;4.30;1.30;;;;;;;20.25;40.30;97652.03;10414646;28;20084;-46
2023/05/03 21:07:54;;;;;;;3.97;1.35;;;;;;;20.25;40.67;97648.53;10427597;28;20409;-50
2023/05/03 21:13:14;;;;;;;2.45;1.30;;;;;;;20.25;40.63;97645.84;10434754;28;20476;-48
2023/05/03 21:18:33;;;;;;;2.63;1.40;;;;;;;20.28;40.68;97647.91;10435753;28;20045;-49
2023/05/03 21:23:53;;;;;;;2.78;1.23;;;;;;;20.28;40.77;97637.09;10435515;28;20113;-49
2023/05/03 21:29:12;;;;;;;2.33;1.10;;;;;;;20.30;40.80;97643.78;10435247;28;20041;-48
2023/05/03 21:34:32;;;;;;;1.60;1.30;;;;;;;20.31;40.84;97647.31;10435029;28;20053;-48
2023/05/03 21:39:52;;;;;;;2.97;1.30;;;;;;;20.30;40.81;97645.69;10434843;28;20493;-49
2023/05/03 21:45:12;;;;;;;2.55;1.48;;;;;;;20.29;40.94;97634.09;10434633;28;20041;-49
2023/05/03 21:50:32;;;;;;;4.22;1.30;;;;;;;20.30;40.98;97651.91;10424613;28;20053;-48
2023/05/03 21:55:51;;;;;;;1.70;1.25;;;;;;;20.28;41.06;97646.00;10434354;28;20136;-49
2023/05/03 22:01:11;;;;;;;2.35;1.40;;;;;;;20.29;41.06;97644.91;10434145;28;20056;-49
2023/05/03 22:06:31;;;;;;;3.92;1.35;;;;;;;20.30;41.09;97645.69;10433889;28;20544;-50
2023/05/03 22:11:51;;;;;;;3.33;1.33;;;;;;;20.29;41.12;97644.13;10433631;28;20056;-45
2023/05/03 22:17:10;;;;;;;2.92;1.30;;;;;;;20.29;41.28;97649.53;10433489;28;20045;-48
2023/05/03 22:22:30;;;;;;;2.22;1.40;;;;;;;20.28;41.22;97637.88;10419673;28;20057;-46
2023/05/03 22:27:50;;;;;;;2.90;1.40;;;;;;;20.28;41.33;97640.59;10433028;28;20042;-48
2023/05/03 22:33:10;;;;;;;2.00;1.20;;;;;;;20.27;41.37;97630.88;10432929;28;20048;-47
2023/05/03 22:38:29;;;;;;;2.40;1.50;;;;;;;20.27;41.38;97620.06;10432685;28;20382;-49
2023/05/03 22:43:49;;;;;;;2.85;1.20;;;;;;;20.27;41.41;97622.78;10432484;28;20045;-45
2023/05/03 22:49:08;;;;;;;1.27;1.17;;;;;;;20.26;41.32;97626.56;10426295;28;20046;-47
2023/05/03 22:54:28;;;;;;;1.63;1.15;;;;;;;20.25;41.51;97622.28;10432129;28;20053;-49
2023/05/03 22:59:48;;;;;;;1.67;1.23;;;;;;;20.25;41.51;97622.28;10430925;28;20057;-48
2023/05/03 23:05:07;;;;;;;2.47;1.20;;;;;;;20.25;41.63;97635.81;10418565;28;20057;-46
2023/05/03 23:10:27;;;;;;;1.30;1.20;;;;;;;20.26;41.71;97625.78;10431318;28;20617;-46
2023/05/03 23:15:47;;;;;;;2.85;1.50;;;;;;;20.24;41.75;97617.16;10431262;28;20041;-49
2023/05/03 23:21:06;;;;;;;3.45;1.38;;;;;;;20.24;41.73;97623.38;10431027;28;20490;-50
2023/05/03 23:26:26;;;;;;;1.83;1.20;;;;;;;20.23;41.73;97610.16;10417637;28;20159;-47
2023/05/03 23:31:46;;;;;;;1.67;1.25;;;;;;;20.22;41.74;97603.94;10429861;28;20383;-48
2023/05/03 23:37:05;;;;;;;1.67;1.30;;;;;;;20.22;41.85;97603.16;10430379;28;20382;-48
2023/05/03 23:42:25;;;;;;;2.60;1.38;;;;;;;20.22;41.96;97600.44;10430191;28;20486;-46
2023/05/03 23:47:44;;;;;;;1.58;1.15;;;;;;;20.20;42.01;97605.38;10427732;28;20050;-49
2023/05/03 23:53:04;;;;;;;1.48;1.17;;;;;;;20.19;42.12;97606.47;10429756;28;20050;-48
2023/05/03 23:58:24;;;;;;;1.90;1.30;;;;;;;20.19;42.04;97603.75;10429579;28;20052;-49
